Time,TemperatureF,DewpointF,PressureIn,WindDirection,WindDirectionDegrees,WindSpeedMPH,WindSpeedGustMPH,Humidity,HourlyPrecipIn,Conditions,Clouds,dailyrainin,SoftwareType,DateUTC
2013-06-01 00:00:00,68.7,49.9,30.00,North,0,0.0,0.0,51,0.00,,CLR,0.00,VWS V14.00,2013-06-01 04:00:00,
2013-06-01 00:15:00,68.7,49.9,30.00,North,0,0.0,0.0,51,0.00,,CLR,0.00,VWS V14.00,2013-06-01 04:15:00,
2013-06-01 00:44:00,67.8,52.0,30.00,North,0,0.0,0.0,57,0.00,,CLR,0.00,VWS V14.00,2013-06-01 04:44:00,
2013-06-01 00:59:00,67.5,54.0,30.00,North,0,0.0,0.0,62,0.00,,CLR,0.00,VWS V14.00,2013-06-01 04:59:00,
2013-06-01 01:14:00,66.9,53.9,30.00,North,0,0.0,0.0,63,0.00,,CLR,0.00,VWS V14.00,2013-06-01 05:14:00,
2013-06-01 01:29:00,66.9,54.8,30.00,North,0,0.0,0.0,65,0.00,,CLR,0.00,VWS V14.00,2013-06-01 05:29:00,
2013-06-01 01:44:00,66.7,55.0,30.00,North,0,0.0,0.0,66,0.00,,CLR,0.00,VWS V14.00,2013-06-01 05:44:00,
2013-06-01 01:59:00,66.2,55.3,30.00,North,0,0.0,0.0,68,0.00,,CLR,0.00,VWS V14.00,2013-06-01 05:59:00,
2013-06-01 02:14:00,66.2,55.7,30.00,North,0,0.0,0.0,69,0.00,,CLR,0.00,VWS V14.00,2013-06-01 06:14:00,
2013-06-01 02:29:00,66.0,56.0,29.97,North,0,0.0,0.0,70,0.00,,CLR,0.00,VWS V14.00,2013-06-01 06:29:00,
2013-06-01 02:44:00,65.8,56.6,29.97,North,0,0.0,0.0,72,0.00,,CLR,0.00,VWS V14.00,2013-06-01 06:44:00,
2013-06-01 02:59:00,66.0,57.1,29.97,North,0,0.0,0.0,73,0.00,,CLR,0.00,VWS V14.00,2013-06-01 06:59:00,
2013-06-01 03:14:00,65.8,57.3,29.97,North,0,0.0,0.0,74,0.00,,CLR,0.00,VWS V14.00,2013-06-01 07:14:00,
2013-06-01 03:29:00,65.5,57.0,29.97,North,0,0.0,0.0,74,0.00,,CLR,0.00,VWS V14.00,2013-06-01 07:29:00,
2013-06-01 03:44:00,64.8,57.0,29.97,North,0,0.0,0.0,76,0.00,,CLR,0.00,VWS V14.00,2013-06-01 07:44:00,
2013-06-01 03:59:00,64.8,57.4,29.97,North,0,0.0,0.0,77,0.00,,CLR,0.00,VWS V14.00,2013-06-01 07:59:00,
2013-06-01 04:14:00,64.4,57.4,29.97,North,0,0.0,0.0,78,0.00,,CLR,0.00,VWS V14.00,2013-06-01 08:14:00,
2013-06-01 04:29:00,64.8,58.1,30.00,North,0,0.0,0.0,79,0.00,,CLR,0.00,VWS V14.00,2013-06-01 08:29:00,
2013-06-01 04:44:00,64.8,58.1,30.00,North,0,0.0,0.0,79,0.00,,CLR,0.00,VWS V14.00,2013-06-01 08:44:00,
2013-06-01 04:59:00,64.0,58.1,30.00,North,0,0.0,0.0,81,0.00,,CLR,0.00,VWS V14.00,2013-06-01 08:59:00,
2013-06-01 05:14:00,64.2,58.3,30.00,North,0,0.0,0.0,81,0.00,,CLR,0.00,VWS V14.00,2013-06-01 09:14:00,
2013-06-01 05:29:00,63.7,57.8,30.00,North,0,0.0,0.0,81,0.00,,CLR,0.00,VWS V14.00,2013-06-01 09:29:00,
2013-06-01 05:44:00,63.5,57.9,30.00,North,0,0.0,0.0,82,0.00,,CLR,0.00,VWS V14.00,2013-06-01 09:44:00,
2013-06-01 05:59:00,63.5,58.2,30.00,North,0,0.0,0.0,83,0.00,,FEW095,0.00,VWS V14.00,2013-06-01 09:59:00,
2013-06-01 06:14:00,63.7,58.4,30.00,North,0,0.0,0.0,83,0.00,,FEW095,0.00,VWS V14.00,2013-06-01 10:14:00,
2013-06-01 06:29:00,64.9,59.7,30.00,North,0,0.0,0.0,83,0.00,,FEW095,0.00,VWS V14.00,2013-06-01 10:29:00,
2013-06-01 06:44:00,65.8,60.2,30.00,North,0,0.0,0.0,82,0.00,,FEW095,0.00,VWS V14.00,2013-06-01 10:44:00,
2013-06-01 06:59:00,67.1,61.1,30.00,North,0,0.0,0.0,81,0.00,,FEW095,0.00,VWS V14.00,2013-06-01 10:59:00,
2013-06-01 07:14:00,68.4,62.0,30.00,North,0,0.0,0.0,80,0.00,,CLR,0.00,VWS V14.00,2013-06-01 11:14:00,
2013-06-01 07:29:00,69.3,62.1,30.00,North,0,0.0,0.0,78,0.00,,CLR,0.00,VWS V14.00,2013-06-01 11:29:00,
2013-06-01 07:44:00,70.7,61.2,30.00,North,0,0.0,0.0,72,0.00,,CLR,0.00,VWS V14.00,2013-06-01 11:44:00,
2013-06-01 07:59:00,72.0,60.0,30.00,North,0,0.0,0.0,66,0.00,,CLR,0.00,VWS V14.00,2013-06-01 11:59:00,
2013-06-01 08:14:00,73.9,58.7,30.00,North,0,0.0,0.0,59,0.00,,CLR,0.00,VWS V14.00,2013-06-01 12:14:00,
2013-06-01 08:29:00,75.0,56.8,30.00,North,0,0.0,0.0,53,0.00,,CLR,0.00,VWS V14.00,2013-06-01 12:29:00,
2013-06-01 08:44:00,76.1,53.8,30.00,North,0,0.0,0.0,46,0.00,,CLR,0.00,VWS V14.00,2013-06-01 12:44:00,
2013-06-01 08:59:00,78.3,46.8,30.00,North,0,0.0,0.0,33,0.00,,CLR,0.00,VWS V14.00,2013-06-01 12:59:00,
2013-06-01 09:15:00,79.2,41.4,30.00,North,0,0.0,0.0,26,0.00,,CLR,0.00,VWS V14.00,2013-06-01 13:15:00,
2013-06-01 09:30:00,80.2,39.1,30.00,North,0,0.0,0.0,23,0.00,,CLR,0.00,VWS V14.00,2013-06-01 13:30:00,
2013-06-01 09:45:00,81.7,36.8,30.00,North,0,0.0,0.0,20,0.00,,CLR,0.00,VWS V14.00,2013-06-01 13:45:00,
2013-06-01 10:00:00,82.9,36.5,30.00,North,0,0.0,0.0,19,0.00,,CLR,0.00,VWS V14.00,2013-06-01 14:00:00,
2013-06-01 10:15:00,82.8,37.6,30.00,North,0,0.0,0.0,20,0.00,,CLR,0.00,VWS V14.00,2013-06-01 14:15:00,
2013-06-01 10:30:00,83.8,37.2,30.00,North,0,0.0,0.0,19,0.00,,CLR,0.00,VWS V14.00,2013-06-01 14:30:00,
2013-06-01 10:45:00,85.3,37.0,29.97,North,0,0.0,0.0,18,0.00,,CLR,0.00,VWS V14.00,2013-06-01 14:45:00,
2013-06-01 11:00:00,86.5,35.1,29.97,North,0,0.0,0.0,16,0.00,,BKN110,0.00,VWS V14.00,2013-06-01 15:00:00,
2013-06-01 11:15:00,88.0,34.6,29.97,North,0,0.0,0.0,15,0.00,,BKN110,0.00,VWS V14.00,2013-06-01 15:15:00,
2013-06-01 11:30:00,88.5,31.5,29.97,North,0,0.0,0.0,13,0.00,,BKN110,0.00,VWS V14.00,2013-06-01 15:30:00,
2013-06-01 11:45:00,88.9,31.7,29.97,North,0,0.0,0.0,13,0.00,,BKN110,0.00,VWS V14.00,2013-06-01 15:45:00,
2013-06-01 12:00:00,89.6,30.3,29.97,North,0,0.0,0.0,12,0.00,,CLR,0.00,VWS V14.00,2013-06-01 16:00:00,
2013-06-01 12:15:00,90.5,31.0,29.97,North,0,0.0,0.0,12,0.00,,CLR,0.00,VWS V14.00,2013-06-01 16:15:00,
2013-06-01 12:30:00,90.9,31.3,29.97,North,0,0.0,0.0,12,0.00,,CLR,0.00,VWS V14.00,2013-06-01 16:30:00,
2013-06-01 12:45:00,89.6,30.3,29.94,North,0,0.0,0.0,12,0.00,,CLR,0.00,VWS V14.00,2013-06-01 16:45:00,
2013-06-01 13:00:00,91.2,31.6,29.97,North,0,0.0,0.0,12,0.00,,CLR,0.00,VWS V14.00,2013-06-01 17:00:00,
2013-06-01 13:15:00,90.1,30.7,29.94,North,0,0.0,0.0,12,0.00,,CLR,0.00,VWS V14.00,2013-06-01 17:15:00,
2013-06-01 13:30:00,89.6,30.3,29.94,North,0,0.0,0.0,12,0.00,,CLR,0.00,VWS V14.00,2013-06-01 17:30:00,
2013-06-01 13:44:00,91.2,31.6,29.94,North,0,0.0,0.0,12,0.00,,CLR,0.00,VWS V14.00,2013-06-01 17:44:00,
2013-06-01 13:59:00,93.2,31.0,29.94,North,0,0.0,0.0,11,0.00,,CLR,0.00,VWS V14.00,2013-06-01 17:59:00,
2013-06-01 14:14:00,91.9,32.1,29.94,North,0,0.0,0.0,12,0.00,,CLR,0.00,VWS V14.00,2013-06-01 18:14:00,
2013-06-01 14:30:00,90.0,30.6,29.94,North,0,0.0,0.0,12,0.00,,CLR,0.00,VWS V14.00,2013-06-01 18:30:00,
2013-06-01 14:44:00,90.9,31.3,29.94,North,0,0.0,0.0,12,0.00,,CLR,0.00,VWS V14.00,2013-06-01 18:44:00,
2013-06-01 14:59:00,88.3,31.3,29.94,North,0,0.0,0.0,13,0.00,,CLR,0.00,VWS V14.00,2013-06-01 18:59:00,
2013-06-01 15:14:00,87.4,30.6,29.91,North,0,0.0,0.0,13,0.00,,FEW055,0.00,VWS V14.00,2013-06-01 19:14:00,
2013-06-01 15:29:00,90.1,30.7,29.91,North,0,0.0,0.0,12,0.00,,FEW055,0.00,VWS V14.00,2013-06-01 19:29:00,
2013-06-01 15:44:00,91.2,31.6,29.91,North,0,0.0,0.0,12,0.00,,FEW055,0.00,VWS V14.00,2013-06-01 19:44:00,
2013-06-01 15:59:00,91.8,32.0,29.91,North,0,0.0,0.0,12,0.00,,SCT080,0.00,VWS V14.00,2013-06-01 19:59:00,
2013-06-01 16:14:00,92.3,32.4,29.91,North,0,0.0,0.0,12,0.00,,SCT080,0.00,VWS V14.00,2013-06-01 20:14:00,
2013-06-01 16:29:00,93.4,31.1,29.88,North,0,0.0,0.0,11,0.00,,SCT080,0.00,VWS V14.00,2013-06-01 20:29:00,
2013-06-01 16:44:00,90.0,30.6,29.88,North,0,0.0,0.0,12,0.00,,SCT080,0.00,VWS V14.00,2013-06-01 20:44:00,
2013-06-01 16:59:00,88.2,31.2,29.88,North,0,0.0,0.0,13,0.00,,FEW110,0.00,VWS V14.00,2013-06-01 20:59:00,
2013-06-01 17:14:00,90.5,31.0,29.88,North,0,0.0,0.0,12,0.00,,FEW110,0.00,VWS V14.00,2013-06-01 21:14:00,
2013-06-01 17:29:00,90.1,30.7,29.88,North,0,0.0,0.0,12,0.00,,FEW110,0.00,VWS V14.00,2013-06-01 21:29:00,
2013-06-01 17:44:00,89.2,32.0,29.88,North,0,0.0,0.0,13,0.00,,FEW110,0.00,VWS V14.00,2013-06-01 21:44:00,
2013-06-01 17:59:00,90.1,30.7,29.88,North,0,0.0,0.0,12,0.00,,FEW110,0.00,VWS V14.00,2013-06-01 21:59:00,
2013-06-01 18:14:00,88.5,31.5,29.88,North,0,0.0,0.0,13,0.00,,CLR,0.00,VWS V14.00,2013-06-01 22:14:00,
2013-06-01 18:29:00,87.6,30.8,29.88,North,0,0.0,0.0,13,0.00,,CLR,0.00,VWS V14.00,2013-06-01 22:29:00,
2013-06-01 18:44:00,86.7,30.0,29.88,North,0,0.0,0.0,13,0.00,,CLR,0.00,VWS V14.00,2013-06-01 22:44:00,
2013-06-01 18:59:00,87.1,30.3,29.88,North,0,0.0,0.0,13,0.00,,CLR,0.00,VWS V14.00,2013-06-01 22:59:00,
2013-06-01 19:14:00,85.8,29.4,29.88,North,0,0.0,0.0,13,0.00,,CLR,0.00,VWS V14.00,2013-06-01 23:14:00,
2013-06-01 19:29:00,84.9,28.6,29.88,North,0,0.0,0.0,13,0.00,,CLR,0.00,VWS V14.00,2013-06-01 23:29:00,
2013-06-01 19:44:00,84.2,33.2,29.88,North,0,0.0,0.0,16,0.00,,CLR,0.00,VWS V14.00,2013-06-01 23:44:00,
2013-06-01 19:59:00,83.8,32.9,29.88,North,0,0.0,0.0,16,0.00,,CLR,0.00,VWS V14.00,2013-06-01 23:59:00,
2013-06-01 20:14:00,83.3,32.5,29.88,North,0,0.0,0.0,16,0.00,,CLR,0.00,VWS V14.00,2013-06-02 00:14:00,
2013-06-01 20:29:00,82.9,36.5,29.88,North,0,0.0,0.0,19,0.00,,CLR,0.00,VWS V14.00,2013-06-02 00:29:00,
2013-06-01 20:44:00,82.4,36.0,29.88,North,0,0.0,0.0,19,0.00,,CLR,0.00,VWS V14.00,2013-06-02 00:44:00,
2013-06-01 20:59:00,81.7,35.5,29.88,North,0,0.0,0.0,19,0.00,,CLR,0.00,VWS V14.00,2013-06-02 00:59:00,
2013-06-01 21:14:00,81.0,36.2,29.88,North,0,0.0,0.0,20,0.00,,CLR,0.00,VWS V14.00,2013-06-02 01:14:00,
2013-06-01 21:29:00,79.9,36.5,29.88,North,0,0.0,0.0,21,0.00,,CLR,0.00,VWS V14.00,2013-06-02 01:29:00,
2013-06-01 21:44:00,79.5,36.2,29.88,North,0,0.0,0.0,21,0.00,,CLR,0.00,VWS V14.00,2013-06-02 01:44:00,
2013-06-01 21:59:00,78.8,36.8,29.88,North,0,0.0,0.0,22,0.00,,CLR,0.00,VWS V14.00,2013-06-02 01:59:00,
2013-06-01 22:14:00,78.8,36.8,29.88,North,0,0.0,0.0,22,0.00,,CLR,0.00,VWS V14.00,2013-06-02 02:14:00,
2013-06-01 22:29:00,78.6,37.8,29.88,North,0,0.0,0.0,23,0.00,,CLR,0.00,VWS V14.00,2013-06-02 02:29:00,
2013-06-01 22:44:00,78.4,37.6,29.88,North,0,0.0,0.0,23,0.00,,CLR,0.00,VWS V14.00,2013-06-02 02:44:00,
2013-06-01 22:59:00,78.3,37.5,29.88,North,0,0.0,0.0,23,0.00,,CLR,0.00,VWS V14.00,2013-06-02 02:59:00,
2013-06-01 23:14:00,78.3,37.5,29.85,North,0,0.0,0.0,23,0.00,,CLR,0.00,VWS V14.00,2013-06-02 03:14:00,
2013-06-01 23:29:00,77.2,37.6,29.85,North,0,0.0,0.0,24,0.00,,CLR,0.00,VWS V14.00,2013-06-02 03:29:00,
2013-06-01 23:45:00,77.2,38.7,29.85,North,0,0.0,0.0,25,0.00,,CLR,0.00,VWS V14.00,2013-06-02 03:45:00,
2013-06-01 23:59:00,77.2,38.7,29.85,North,0,0.0,0.0,25,0.00,,CLR,0.00,VWS V14.00,2013-06-02 03:59:00,